Weather History for KPQN - March, 2014

Change the Weather History Date:

Friday, March 14, 2014

  Actual Average Record
Temperature  
Mean Temperature 38 °F -  
Max Temperature 44 °F 34 °F 62 °F (2003)
Min Temperature 32 °F 19 °F 6 °F (1997)
Degree Days  
Heating Degree Days 27    
Moisture  
Dew Point 31 °F    
Average Humidity 76    
Maximum Humidity 93    
Minimum Humidity 61    
Precipitation  
Precipitation 0.00 in - - ()
Sea Level Pressure  
Sea Level Pressure 29.78 in    
Wind  
Wind Speed 13 mph (NNW)    
Max Wind Speed 22 mph    
Max Gust Speed 30 mph    
Visibility 10 miles    
Events      
Averages and records for this station are not official NWS values.
T = Trace of Precipitation, MM = Missing Value Source: NWS Daily Summary

Daily Weather History Graph

Daily Weather History Graph

Search for Another Location

Airport or City:

Trip Planner

Search our weather history database for the weather conditions in past years. The results will help you decide how hot, cold, wet, or windy it might be!

Date:

Astronomy

Mar. 14, 2014 Rise Set
Actual Time 7:39 AM CDT 7:30 PM CDT
Civil Twilight 7:10 AM CDT 7:58 PM CDT
Nautical Twilight 6:37 AM CDT 8:32 PM CDT
Astronomical Twilight 6:03 AM CDT 9:06 PM CDT
Moon 5:51 PM CDT (3/14) 6:22 AM CDT (3/14)
Length of Visible Light 12h 48m
Length of Day
11h 51m
Waxing Gibbous, 96% of the Moon is Illuminated
Mar 14
Waxing Gibbous
Mar 16
Full
Mar 23
Last Quarter
Mar 30
New
Apr 7
First Quarter

Hourly Weather History & Observations

Time (CDT) Temp. Windchill Dew Point Humidity Pressure Visibility Wind Dir Wind Speed Gust Speed Precip Events Conditions
12:13 AM 44.6 °F 38.4 °F 32.0 °F 61% 29.59 in 10.0 mi NNW 12.7 mph 21.9 mph N/A   Clear
12:33 AM 42.8 °F 35.1 °F 33.8 °F 70% 29.59 in 10.0 mi NNW 16.1 mph 21.9 mph N/A   Clear
12:53 AM 42.8 °F 36.6 °F 33.8 °F 70% 29.59 in 10.0 mi NNW 11.5 mph - N/A   Clear
1:13 AM 41.0 °F 33.5 °F 33.8 °F 76% 29.60 in 10.0 mi NNW 13.8 mph 18.4 mph N/A   Clear
1:33 AM 39.2 °F 31.6 °F 33.8 °F 81% 29.60 in 10.0 mi NNW 12.7 mph - N/A   Clear
1:53 AM 39.2 °F 31.6 °F 32.0 °F 75% 29.61 in 10.0 mi NNW 12.7 mph - N/A   Clear
2:13 AM 39.2 °F 31.6 °F 30.2 °F 70% 29.62 in 10.0 mi NNW 12.7 mph - N/A   Clear
2:33 AM 39.2 °F 30.2 °F 32.0 °F 75% 29.64 in 10.0 mi NNW 17.3 mph - N/A   Clear
2:53 AM 37.4 °F 27.8 °F 30.2 °F 75% 29.64 in 10.0 mi NNW 17.3 mph - N/A   Clear
3:13 AM 37.4 °F 28.2 °F 30.2 °F 75% 29.65 in 10.0 mi NNW 16.1 mph 25.3 mph N/A   Clear
3:33 AM 37.4 °F 28.5 °F 28.4 °F 70% 29.66 in 10.0 mi NNW 15.0 mph - N/A   Clear
3:53 AM 37.4 °F 29.8 °F 30.2 °F 75% 29.67 in 10.0 mi NW 11.5 mph 19.6 mph N/A   Clear
4:13 AM 37.4 °F 29.8 °F 28.4 °F 70% 29.67 in 10.0 mi NW 11.5 mph - N/A   Mostly Cloudy
4:33 AM 35.6 °F 27.5 °F 28.4 °F 75% 29.68 in 10.0 mi NW 11.5 mph - N/A   Scattered Clouds
4:53 AM 37.4 °F 28.9 °F 28.4 °F 70% 29.68 in 10.0 mi NW 13.8 mph 20.7 mph N/A   Mostly Cloudy
5:13 AM 35.6 °F 27.1 °F 28.4 °F 75% 29.69 in 10.0 mi NW 12.7 mph - N/A   Scattered Clouds
5:33 AM 35.6 °F 27.1 °F 28.4 °F 75% 29.69 in 10.0 mi NW 12.7 mph 18.4 mph N/A   Clear
5:53 AM 35.6 °F 27.1 °F 28.4 °F 75% 29.70 in 10.0 mi NW 12.7 mph - N/A   Clear
6:14 AM 35.6 °F 28.0 °F 28.4 °F 75% 29.70 in 10.0 mi NW 10.4 mph 16.1 mph N/A   Clear
6:33 AM 33.8 °F 25.8 °F 28.4 °F 81% 29.70 in 10.0 mi NW 10.4 mph - N/A   Clear
6:53 AM 33.8 °F 25.8 °F 28.4 °F 81% 29.71 in 10.0 mi NW 10.4 mph - N/A   Clear
7:13 AM 33.8 °F 25.8 °F 30.2 °F 87% 29.71 in 10.0 mi WNW 10.4 mph - N/A   Clear
7:33 AM 33.8 °F 25.3 °F 30.2 °F 87% 29.72 in 10.0 mi WNW 11.5 mph - N/A   Clear
7:53 AM 33.8 °F 26.4 °F 30.2 °F 87% 29.72 in 10.0 mi WNW 9.2 mph - N/A   Clear
8:13 AM 33.8 °F 24.8 °F 30.2 °F 87% 29.73 in 10.0 mi WNW 12.7 mph - N/A   Clear
8:34 AM 33.8 °F 24.8 °F 30.2 °F 87% 29.74 in 10.0 mi WNW 12.7 mph - N/A   Mostly Cloudy
8:53 AM 33.8 °F 24.3 °F 30.2 °F 87% 29.74 in 10.0 mi WNW 13.8 mph - N/A   Overcast
9:13 AM 35.6 °F 25.9 °F 30.2 °F 81% 29.75 in 10.0 mi WNW 16.1 mph - N/A   Overcast
9:34 AM 35.6 °F 25.5 °F 30.2 °F 81% 29.75 in 10.0 mi NW 17.3 mph 20.7 mph N/A   Mostly Cloudy
9:53 AM 35.6 °F 25.2 °F 30.2 °F 81% 29.75 in 10.0 mi NW 18.4 mph 21.9 mph N/A   Clear
10:13 AM 35.6 °F 26.2 °F 30.2 °F 81% 29.76 in 10.0 mi NW 15.0 mph 20.7 mph N/A   Scattered Clouds
10:33 AM 37.4 °F 27.5 °F 30.2 °F 75% 29.76 in 10.0 mi NW 18.4 mph 25.3 mph N/A   Scattered Clouds
10:53 AM 37.4 °F 27.2 °F 30.2 °F 75% 29.77 in 10.0 mi NW 19.6 mph 26.5 mph N/A   Mostly Cloudy
11:13 AM 37.4 °F 28.5 °F 32.0 °F 81% 29.78 in 10.0 mi NW 15.0 mph 27.6 mph N/A   Mostly Cloudy
11:33 AM 37.4 °F 28.5 °F 30.2 °F 75% 29.79 in 10.0 mi NW 15.0 mph 27.6 mph N/A   Overcast
11:53 AM 39.2 °F 29.8 °F 32.0 °F 75% 29.80 in 10.0 mi NNW 18.4 mph 29.9 mph N/A   Overcast
12:14 PM 39.2 °F 29.3 °F 30.2 °F 70% 29.80 in 10.0 mi NNW 20.7 mph 28.8 mph N/A   Overcast
12:33 PM 39.2 °F 29.8 °F 32.0 °F 75% 29.81 in 10.0 mi NNW 18.4 mph 26.5 mph N/A   Overcast
12:53 PM 41.0 °F 33.1 °F 32.0 °F 70% 29.81 in 10.0 mi NW 15.0 mph 23.0 mph N/A   Overcast
1:14 PM 41.0 °F 31.9 °F 32.0 °F 70% 29.81 in 10.0 mi NNW 19.6 mph 26.5 mph N/A   Overcast
1:33 PM 42.8 °F 35.4 °F 33.8 °F 70% 29.81 in 10.0 mi NNW 15.0 mph 27.6 mph N/A   Overcast
1:53 PM 42.8 °F 33.8 °F 33.8 °F 70% 29.82 in 10.0 mi NNW 21.9 mph 27.6 mph N/A   Overcast
2:13 PM 42.8 °F 34.3 °F 32.0 °F 66% 29.82 in 10.0 mi NNW 19.6 mph 25.3 mph N/A   Overcast
2:33 PM 41.0 °F 32.2 °F 32.0 °F 70% 29.82 in 10.0 mi NNW 18.4 mph 24.2 mph N/A   Overcast
2:53 PM 39.2 °F 30.2 °F 32.0 °F 75% 29.83 in 10.0 mi North 17.3 mph 28.8 mph N/A   Overcast
3:13 PM 39.2 °F 30.2 °F 32.0 °F 75% 29.83 in 10.0 mi NNW 17.3 mph 24.2 mph N/A   Overcast
3:33 PM 41.0 °F 33.5 °F 32.0 °F 70% 29.83 in 10.0 mi NW 13.8 mph - N/A   Overcast
3:53 PM 41.0 °F 32.8 °F 32.0 °F 70% 29.83 in 10.0 mi NW 16.1 mph 20.7 mph N/A   Overcast
4:13 PM 42.8 °F 35.4 °F 32.0 °F 66% 29.83 in 10.0 mi NNW 15.0 mph 19.6 mph N/A   Overcast
4:33 PM 42.8 °F 35.8 °F 32.0 °F 66% 29.84 in 10.0 mi NW 13.8 mph 20.7 mph N/A   Mostly Cloudy
4:53 PM 42.8 °F 35.4 °F 30.2 °F 61% 29.84 in 10.0 mi NW 15.0 mph 19.6 mph N/A   Mostly Cloudy
5:13 PM 42.8 °F 36.6 °F 30.2 °F 61% 29.84 in 10.0 mi NW 11.5 mph 23.0 mph N/A   Scattered Clouds
5:33 PM 42.8 °F 35.1 °F 30.2 °F 61% 29.84 in 10.0 mi NNW 16.1 mph - N/A   Clear
5:53 PM 42.8 °F 37.0 °F 30.2 °F 61% 29.85 in 10.0 mi NW 10.4 mph - N/A   Clear
6:13 PM 42.8 °F 36.6 °F 30.2 °F 61% 29.85 in 10.0 mi NW 11.5 mph - N/A   Clear
6:33 PM 42.8 °F 37.5 °F 30.2 °F 61% 29.86 in 10.0 mi NNW 9.2 mph - N/A   Clear
6:53 PM 42.8 °F 38.0 °F 30.2 °F 61% 29.87 in 10.0 mi NW 8.1 mph - N/A   Clear
7:13 PM 41.0 °F 35.8 °F 30.2 °F 65% 29.87 in 10.0 mi NNW 8.1 mph - N/A   Clear
7:33 PM 41.0 °F 34.7 °F 30.2 °F 65% 29.88 in 10.0 mi NNW 10.4 mph - N/A   Clear
7:53 PM 37.4 °F 32.8 °F 30.2 °F 75% 29.90 in 10.0 mi North 5.8 mph - N/A   Clear
8:13 PM 35.6 °F 31.7 °F 33.8 °F 93% 29.90 in 10.0 mi NE 4.6 mph - N/A   Clear
8:33 PM 35.6 °F 32.8 °F 32.0 °F 87% 29.91 in 10.0 mi ENE 3.5 mph - N/A   Clear
8:53 PM 33.8 °F 29.6 °F 32.0 °F 93% 29.91 in 10.0 mi ENE 4.6 mph - N/A   Clear
9:13 PM 33.8 °F 30.8 °F 32.0 °F 93% 29.91 in 10.0 mi East 3.5 mph - N/A   Clear
9:33 PM 33.8 °F - 32.0 °F 93% 29.92 in 10.0 mi Calm Calm - N/A   Clear
9:53 PM 33.8 °F 30.8 °F 30.2 °F 87% 29.92 in 10.0 mi East 3.5 mph - N/A   Clear
10:13 PM 33.8 °F 28.6 °F 30.2 °F 87% 29.93 in 10.0 mi ENE 5.8 mph - N/A   Clear
10:33 PM 33.8 °F 29.6 °F 30.2 °F 87% 29.93 in 10.0 mi ENE 4.6 mph - N/A   Clear
10:53 PM 33.8 °F 26.4 °F 30.2 °F 87% 29.92 in 10.0 mi ENE 9.2 mph - N/A   Clear
11:13 PM 33.8 °F 29.6 °F 30.2 °F 87% 29.92 in 10.0 mi ENE 4.6 mph - N/A   Clear
11:32 PM 32.0 °F 24.8 °F 30.2 °F 93% - 10.0 mi East 8.1 mph - N/A   Clear
11:53 PM 32.0 °F 24.8 °F 30.2 °F 93% 29.91 in 10.0 mi East 8.1 mph - N/A   Clear